Terminal Aerodrome Forecast
Issued by NWS Sterling, VA

Current Version | Previous Version | Graphics & Text | Print | Product List | Glossary On
Versions: 1 2 3 4 5 6 7 8 9 10 11 12 13 14 15 16 17 18 19 20 21 22 23
066
FTUS41 KLWX 250540
TAFIAD
TAF
KIAD 250540Z 2506/2612 17008KT P6SM BKN050
     FM251000 17008KT 5SM BR SCT008 BKN025
     FM251700 20013G22KT 5SM -SHRA VCTS BKN035CB
     FM252000 28017G29KT P6SM OVC050
     FM260400 30016G24KT P6SM SCT040=

USA.gov is the U.S. government's official web portal to all federal, state and local government web resources and services.